Time;durP1;ratioP1;P1;durP2;ratioP2;P2;SDS_P1;SDS_P2;PMS_P1;PMS_P2;Temp;Humidity;BMP_temperature;BMP_pressure;BME280_temperature;BME280_humidity;BME280_pressure;Samples;Min_cycle;Max_cycle;Signal;HPM_P1;HPM_P2
2021/06/24 00:00:44;;;;;;;;;10.00;9.25;;;;;18.94;52.06;100993.16;5076074;28;45951;-76
2021/06/24 00:03:10;;;;;;;;;10.00;9.50;;;;;18.96;52.16;101004.50;5056142;28;45579;-79
2021/06/24 00:05:35;;;;;;;;;9.75;8.50;;;;;18.94;52.36;100993.16;5074657;28;45384;-78
2021/06/24 00:08:01;;;;;;;;;7.00;7.00;;;;;18.92;52.11;100995.03;5075435;27;45655;-78
2021/06/24 00:10:26;;;;;;;;;7.00;7.00;;;;;18.94;52.31;100995.78;5087925;27;46991;-78
2021/06/24 00:12:52;;;;;;;;;11.25;10.00;;;;;18.93;52.10;100997.59;5039546;28;45482;-78
2021/06/24 00:15:17;;;;;;;;;9.75;9.25;;;;;18.89;52.36;100984.59;5054159;28;45331;-78
2021/06/24 00:17:43;;;;;;;;;9.75;9.75;;;;;18.93;52.37;100991.44;5070055;28;45525;-77
2021/06/24 00:20:08;;;;;;;;;10.25;10.25;;;;;18.96;52.69;100995.72;5025599;28;46255;-77
2021/06/24 00:22:34;;;;;;;;;10.50;10.25;;;;;18.93;52.47;100994.94;5071955;28;45542;-77
2021/06/24 00:24:59;;;;;;;;;11.75;9.75;;;;;18.93;52.46;100991.44;5056531;28;45578;-77
2021/06/24 00:27:25;;;;;;;;;10.75;7.50;;;;;18.96;52.34;100996.56;5075313;28;45600;-77
2021/06/24 00:29:50;;;;;;;;;8.25;7.25;;;;;18.96;52.48;100978.03;5072641;27;48324;-77
2021/06/24 00:32:16;;;;;;;;;12.50;11.00;;;;;18.96;52.24;100985.97;5077655;28;45405;-75
2021/06/24 00:34:42;;;;;;;;;8.25;6.75;;;;;18.97;52.54;100984.19;5094336;27;45488;-76
2021/06/24 00:37:07;;;;;;;;;10.50;10.50;;;;;18.96;52.66;100980.69;5079637;28;45466;-77
2021/06/24 00:39:32;;;;;;;;;10.75;9.25;;;;;18.95;52.15;100984.28;5077648;28;54137;-77
2021/06/24 00:41:58;;;;;;;;;9.50;9.50;;;;;18.96;52.55;100978.03;5076437;27;55185;-77
2021/06/24 00:44:23;;;;;;;;;10.50;9.25;;;;;18.96;52.46;100979.84;5042351;28;45386;-78
2021/06/24 00:46:52;;;;;;;;;8.00;6.50;;;;;18.96;52.63;100988.63;5077372;28;45603;-78
2021/06/24 00:49:17;;;;;;;;;7.00;7.00;;;;;18.95;52.47;100984.28;5069920;28;45542;-78
2021/06/24 00:51:42;;;;;;;;;9.25;6.00;;;;;18.95;52.60;100978.97;5045335;28;45474;-77
2021/06/24 00:54:08;;;;;;;;;9.75;8.50;;;;;18.97;52.68;100976.25;5057435;28;59422;-78
2021/06/24 00:56:33;;;;;;;;;3.25;2.00;;;;;18.98;52.59;100973.53;5078731;28;45665;-77
2021/06/24 00:59:03;;;;;;;;;11.50;10.50;;;;;18.98;52.62;100973.53;5049663;28;45965;-76
2021/06/24 01:01:31;;;;;;;;;10.50;9.25;;;;;18.99;52.97;100969.06;5069753;28;45510;-76
2021/06/24 01:03:56;;;;;;;;;8.50;7.75;;;;;18.98;52.81;100962.94;5058645;28;45520;-76
2021/06/24 01:06:22;;;;;;;;;10.25;9.25;;;;;18.99;52.89;100964.63;5077601;28;45464;-76
2021/06/24 01:08:47;;;;;;;;;6.75;6.25;;;;;18.98;53.13;100962.94;5059074;28;47222;-76
2021/06/24 01:11:13;;;;;;;;;9.25;8.25;;;;;18.98;52.78;100957.63;5073998;28;45456;-76
2021/06/24 01:13:39;;;;;;;;;6.75;6.25;;;;;19.00;52.84;100966.34;5066035;28;45550;-77
2021/06/24 01:16:04;;;;;;;;;9.25;8.50;;;;;19.00;52.78;100961.06;5058385;28;55074;-76
2021/06/24 01:18:30;;;;;;;;;10.00;9.25;;;;;18.99;52.64;100961.13;5077540;28;47265;-77
2021/06/24 01:20:55;;;;;;;;;9.00;8.75;;;;;19.00;52.78;100961.06;5078028;28;45659;-78
2021/06/24 01:23:20;;;;;;;;;10.25;10.00;;;;;19.01;52.95;100960.13;5061283;28;45608;-78
2021/06/24 01:25:46;;;;;;;;;7.00;6.25;;;;;19.00;52.49;100961.06;5075916;28;45663;-77
2021/06/24 01:28:11;;;;;;;;;8.75;8.25;;;;;19.01;52.60;100964.56;5077911;28;45323;-77
2021/06/24 01:30:37;;;;;;;;;9.50;9.50;;;;;19.01;52.68;100959.25;5075335;28;45330;-77
2021/06/24 01:33:04;;;;;;;;;6.50;6.50;;;;;19.01;52.96;100960.13;5075877;28;45454;-78
2021/06/24 01:35:29;;;;;;;;;10.25;9.50;;;;;19.01;52.54;100959.25;5059820;28;45552;-77
2021/06/24 01:37:59;;;;;;;;;9.00;8.50;;;;;19.01;52.55;100956.59;5071871;27;45852;-76
2021/06/24 01:40:25;;;;;;;;;7.75;7.00;;;;;19.01;52.57;100946.03;5077696;28;45463;-76
2021/06/24 01:42:51;;;;;;;;;14.00;11.50;;;;;19.02;52.46;100955.66;5050097;28;45426;-76
2021/06/24 01:45:17;;;;;;;;;8.25;6.25;;;;;18.99;52.79;100940.81;5077918;28;45251;-76
2021/06/24 01:47:42;;;;;;;;;10.75;8.50;;;;;19.01;52.75;100946.03;5056505;28;57318;-76
2021/06/24 01:50:09;;;;;;;;;10.50;9.25;;;;;19.01;52.75;100953.97;5075966;28;45353;-77
2021/06/24 01:52:34;;;;;;;;;6.75;6.75;;;;;19.00;52.63;100939.03;5047823;28;45739;-77
2021/06/24 01:55:00;;;;;;;;;9.75;9.75;;;;;18.99;52.77;100938.16;5052186;28;45489;-76
2021/06/24 01:57:25;;;;;;;;;10.50;9.50;;;;;19.00;52.84;100929.28;5055116;28;45439;-77
2021/06/24 01:59:50;;;;;;;;;10.50;9.50;;;;;18.99;52.88;100929.38;5054404;28;45328;-75
2021/06/24 02:02:16;;;;;;;;;14.75;11.25;;;;;19.00;52.66;100920.50;5068333;28;45781;-76
2021/06/24 02:04:41;;;;;;;;;10.00;10.00;;;;;18.99;52.83;100926.72;5054656;28;45390;-75
2021/06/24 02:07:07;;;;;;;;;8.25;7.50;;;;;18.99;52.50;100929.38;5053625;28;45844;-76
2021/06/24 02:09:32;;;;;;;;;11.50;9.25;;;;;18.99;52.54;100935.53;5065986;28;45508;-76
2021/06/24 02:11:58;;;;;;;;;8.25;7.50;;;;;18.99;52.89;100927.56;5070930;28;45798;-76
2021/06/24 02:14:24;;;;;;;;;8.75;8.00;;;;;18.97;52.72;100916.22;5055915;28;45583;-76
2021/06/24 02:16:49;;;;;;;;;10.00;9.50;;;;;18.98;52.98;100919.72;5054848;28;45542;-75
2021/06/24 02:19:15;;;;;;;;;8.50;7.25;;;;;18.98;52.82;100909.13;5061476;28;45424;-75
2021/06/24 02:21:40;;;;;;;;;9.25;8.00;;;;;18.97;52.93;100915.38;5074448;28;45446;-76
2021/06/24 02:24:06;;;;;;;;;10.50;9.50;;;;;18.97;52.55;100913.56;5074531;28;45397;-74
2021/06/24 02:26:31;;;;;;;;;9.50;9.50;;;;;18.98;52.95;100911.78;5074228;28;52437;-75
2021/06/24 02:28:56;;;;;;;;;9.00;9.00;;;;;18.96;52.84;100905.72;5056090;28;59229;-77
2021/06/24 02:31:22;;;;;;;;;10.50;9.25;;;;;18.97;52.55;100905.63;5073682;28;45375;-76
2021/06/24 02:33:48;;;;;;;;;10.75;7.75;;;;;18.96;52.68;100905.72;5070795;28;45457;-76
2021/06/24 02:36:13;;;;;;;;;7.00;6.75;;;;;18.96;52.54;100905.72;5074707;28;46502;-76
2021/06/24 02:38:39;;;;;;;;;6.50;6.50;;;;;18.95;52.63;100906.66;5075582;28;57034;-77
2021/06/24 02:41:04;;;;;;;;;8.75;8.75;;;;;18.95;52.47;100904.00;5073904;28;45955;-76
2021/06/24 02:43:29;;;;;;;;;11.50;11.50;;;;;18.96;52.71;100911.00;5057508;28;45403;-76
2021/06/24 02:45:55;;;;;;;;;9.50;6.75;;;;;18.95;52.79;100907.50;5054884;28;45504;-76
2021/06/24 02:48:20;;;;;;;;;8.25;8.25;;;;;18.95;52.98;100914.59;5054110;28;45343;-76
2021/06/24 02:50:46;;;;;;;;;8.75;8.75;;;;;18.94;52.79;100911.09;5054018;28;45944;-75
2021/06/24 02:53:11;;;;;;;;;9.50;8.00;;;;;18.93;52.78;100915.53;5057720;28;51409;-75
2021/06/24 02:55:37;;;;;;;;;7.50;7.25;;;;;18.92;52.76;100905.88;5076249;28;58911;-76
2021/06/24 02:58:02;;;;;;;;;9.00;6.00;;;;;18.92;52.66;100899.75;5059834;28;45523;-75
2021/06/24 03:00:27;;;;;;;;;10.50;8.25;;;;;18.92;52.75;100911.19;5057202;28;45563;-75
2021/06/24 03:02:53;;;;;;;;;6.25;6.25;;;;;18.91;52.63;100903.34;5074422;28;45428;-77
2021/06/24 03:05:19;;;;;;;;;10.50;9.25;;;;;18.93;52.93;100910.25;5070247;28;48763;-76
2021/06/24 03:07:45;;;;;;;;;8.25;8.25;;;;;18.93;52.86;100901.44;5055159;28;45409;-75
2021/06/24 03:10:11;;;;;;;;;8.50;8.25;;;;;18.93;52.85;100899.66;5064349;28;45416;-76
2021/06/24 03:12:36;;;;;;;;;7.50;7.00;;;;;18.92;52.71;100897.09;5067097;28;45462;-75
2021/06/24 03:15:03;;;;;;;;;8.00;8.00;;;;;18.91;53.08;100898.88;5036581;28;45515;-76
2021/06/24 03:17:29;;;;;;;;;8.00;7.00;;;;;18.92;52.96;100894.44;5054331;28;45312;-76
2021/06/24 03:19:54;;;;;;;;;9.25;7.25;;;;;18.91;52.91;100892.75;5060247;28;58637;-75
2021/06/24 03:22:19;;;;;;;;;12.50;10.25;;;;;18.90;52.65;100898.97;5073281;28;45521;-75
2021/06/24 03:24:45;;;;;;;;;9.50;9.50;;;;;18.89;52.78;100906.06;5090860;27;47622;-76
2021/06/24 03:27:10;;;;;;;;;8.00;8.00;;;;;18.89;52.69;100905.22;5040047;28;45389;-76
2021/06/24 03:29:36;;;;;;;;;9.50;9.50;;;;;18.88;53.13;100907.00;5074757;28;45840;-77
2021/06/24 03:32:01;;;;;;;;;8.25;8.25;;;;;18.87;52.87;100907.94;5054878;28;45559;-77
2021/06/24 03:34:27;;;;;;;;;7.00;7.00;;;;;18.87;52.80;100901.78;5054274;28;45762;-78
2021/06/24 03:36:52;;;;;;;;;7.75;7.75;;;;;18.88;52.46;100900.84;5062092;28;45777;-76
2021/06/24 03:39:17;;;;;;;;;8.00;8.00;;;;;18.86;52.79;100908.84;5074340;28;45906;-75
2021/06/24 03:41:43;;;;;;;;;6.25;5.25;;;;;18.86;52.60;100900.91;5073210;28;45626;-76
2021/06/24 03:44:08;;;;;;;;;7.25;7.25;;;;;18.84;52.78;100901.94;5072009;28;46082;-76
2021/06/24 03:46:34;;;;;;;;;9.75;9.75;;;;;18.86;52.57;100897.41;5073016;28;45457;-77
2021/06/24 03:48:59;;;;;;;;;9.75;9.00;;;;;18.84;52.93;100905.44;5075049;28;45357;-76
2021/06/24 03:51:24;;;;;;;;;11.00;9.75;;;;;18.83;52.59;100895.78;5073679;27;45599;-76
2021/06/24 03:53:50;;;;;;;;;8.75;8.75;;;;;18.84;52.80;100894.00;5054867;28;47431;-75
2021/06/24 03:56:15;;;;;;;;;7.75;7.75;;;;;18.84;52.32;100899.28;5074223;28;45915;-76
2021/06/24 03:58:41;;;;;;;;;9.75;8.25;;;;;18.82;52.64;100893.22;5073482;28;45495;-76
2021/06/24 04:01:06;;;;;;;;;10.00;10.00;;;;;18.81;52.68;100895.00;5072240;28;59932;-76
2021/06/24 04:03:31;;;;;;;;;11.75;8.75;;;;;18.81;52.39;100905.59;5071113;28;47519;-76
2021/06/24 04:05:57;;;;;;;;;9.50;8.25;;;;;18.80;52.43;100901.25;5074670;28;45305;-76
2021/06/24 04:08:22;;;;;;;;;9.25;8.25;;;;;18.80;52.81;100903.03;5077025;28;45466;-76
2021/06/24 04:10:48;;;;;;;;;9.50;8.75;;;;;18.80;52.69;100903.88;5077027;28;45524;-77
2021/06/24 04:13:13;;;;;;;;;8.25;8.25;;;;;18.79;52.75;100898.69;5066895;28;46175;-76
2021/06/24 04:15:39;;;;;;;;;11.00;11.00;;;;;18.78;52.45;100907.56;5065179;28;45375;-76
2021/06/24 04:18:05;;;;;;;;;7.25;6.50;;;;;18.78;52.62;100905.78;5078853;28;45284;-77
2021/06/24 04:20:31;;;;;;;;;9.50;9.50;;;;;18.78;52.71;100905.78;5059101;28;45394;-76
2021/06/24 04:22:56;;;;;;;;;9.75;9.75;;;;;18.76;52.46;100910.28;5058218;28;45544;-76
2021/06/24 04:25:22;;;;;;;;;9.50;9.50;;;;;18.77;52.62;100906.72;5056901;28;45544;-76
2021/06/24 04:27:47;;;;;;;;;11.25;8.00;;;;;18.76;52.85;100904.16;5058741;28;45857;-77
2021/06/24 04:30:13;;;;;;;;;7.00;6.00;;;;;18.76;52.60;100904.16;5072227;28;45485;-76
2021/06/24 04:32:39;;;;;;;;;11.75;11.25;;;;;18.76;52.44;100917.38;5077621;28;47800;-76
2021/06/24 04:35:05;;;;;;;;;10.25;9.00;;;;;18.77;52.44;100913.78;5078175;28;45406;-75
2021/06/24 04:37:30;;;;;;;;;8.75;8.00;;;;;18.75;52.70;100924.47;5079073;28;45450;-76
2021/06/24 04:39:56;;;;;;;;;9.00;9.00;;;;;18.75;52.43;100918.31;5090181;27;45639;-77
2021/06/24 04:42:21;;;;;;;;;10.75;8.75;;;;;18.74;52.34;100917.47;5074816;28;45414;-76
2021/06/24 04:44:47;;;;;;;;;9.75;8.75;;;;;18.74;52.43;100919.25;5058854;28;45875;-75
2021/06/24 04:47:12;;;;;;;;;9.00;8.75;;;;;18.74;52.56;100921.91;5072991;28;46648;-75
2021/06/24 04:49:38;;;;;;;;;9.50;9.50;;;;;18.72;52.39;100921.97;5077006;28;45401;-77
2021/06/24 04:52:03;;;;;;;;;7.00;7.00;;;;;18.73;52.38;100923.69;5078341;28;48615;-77
2021/06/24 04:54:28;;;;;;;;;10.25;8.25;;;;;18.72;52.77;100923.78;5084734;27;45464;-76
2021/06/24 04:56:54;;;;;;;;;9.75;8.25;;;;;18.73;52.56;100922.84;5061455;27;59293;-77
2021/06/24 04:59:19;;;;;;;;;11.25;9.50;;;;;18.71;52.25;100927.34;5079563;27;45314;-77
2021/06/24 05:01:45;;;;;;;;;7.75;7.25;;;;;18.52;52.58;100930.06;5070052;27;46764;-73
2021/06/24 05:04:10;;;;;;;;;9.50;9.50;;;;;18.29;52.81;100931.25;5060417;28;45900;-76
2021/06/24 05:06:36;;;;;;;;;11.75;11.50;;;;;18.09;53.32;100924.34;5068519;27;48220;-73
2021/06/24 05:09:04;;;;;;;;;11.50;11.50;;;;;17.92;53.67;100938.38;5101357;27;54041;-75
2021/06/24 05:11:29;;;;;;;;;15.25;13.00;;;;;17.71;54.12;100928.88;5085071;27;45505;-78
2021/06/24 05:13:55;;;;;;;;;12.00;10.50;;;;;17.51;54.61;100931.59;5075511;27;45893;-73
2021/06/24 05:16:20;;;;;;;;;13.75;13.00;;;;;17.34;55.15;100925.31;5078097;28;46415;-73
2021/06/24 05:18:46;;;;;;;;;11.75;11.25;;;;;17.16;55.50;100925.34;5084942;27;45637;-76
2021/06/24 05:21:11;;;;;;;;;13.00;11.25;;;;;17.04;55.81;100924.13;5098603;27;46336;-74
2021/06/24 05:23:38;;;;;;;;;13.75;13.00;;;;;16.93;56.93;100931.69;5087220;27;45666;-81
2021/06/24 05:26:03;;;;;;;;;13.75;12.75;;;;;16.71;57.07;100929.16;5050355;28;45510;-80
2021/06/24 05:28:29;;;;;;;;;13.25;12.25;;;;;16.53;57.61;100930.78;5079228;28;45357;-76
2021/06/24 05:30:54;;;;;;;;;12.75;12.00;;;;;16.50;57.64;100926.50;5076292;27;45381;-75
2021/06/24 05:33:20;;;;;;;;;16.00;13.50;;;;;16.47;57.77;100925.75;5075074;27;45372;-75
2021/06/24 05:35:47;;;;;;;;;10.00;10.00;;;;;16.34;57.89;100920.19;5064704;28;45347;-77
2021/06/24 05:38:13;;;;;;;;;12.75;12.75;;;;;16.25;58.63;100917.91;5071460;28;45444;-75
2021/06/24 05:40:39;;;;;;;;;12.25;10.75;;;;;16.17;58.69;100917.41;5074690;27;46074;-79
2021/06/24 05:43:05;;;;;;;;;15.00;12.75;;;;;16.13;58.70;100921.94;5090727;27;45475;-76
2021/06/24 05:45:30;;;;;;;;;32.00;29.00;;;;;16.12;58.73;100928.13;5069846;28;45366;-75
2021/06/24 05:47:56;;;;;;;;;17.00;16.00;;;;;16.14;58.85;100921.03;5069479;28;45480;-74
2021/06/24 05:50:22;;;;;;;;;18.75;14.75;;;;;16.19;58.93;100923.47;5063469;27;46225;-84
2021/06/24 05:52:48;;;;;;;;;20.25;17.50;;;;;16.23;58.97;100922.41;5067982;28;45418;-79
2021/06/24 05:55:13;;;;;;;;;13.25;11.25;;;;;16.30;58.54;100928.28;5064966;28;45259;-74
2021/06/24 05:57:39;;;;;;;;;15.00;13.50;;;;;16.33;58.80;100923.72;5073076;27;52201;-73
2021/06/24 06:00:05;;;;;;;;;12.00;12.00;;;;;16.38;58.75;100932.28;5087068;27;47047;-72
2021/06/24 06:02:31;;;;;;;;;13.75;12.75;;;;;16.39;58.54;100931.38;5065755;28;45422;-75
2021/06/24 06:04:56;;;;;;;;;13.00;13.00;;;;;16.40;58.69;100940.13;5082643;27;45497;-75
2021/06/24 06:07:22;;;;;;;;;13.00;12.25;;;;;16.43;58.50;100937.34;5056096;28;45571;-77
2021/06/24 06:09:47;;;;;;;;;15.00;14.00;;;;;16.47;58.69;100941.56;5082788;27;45618;-75
2021/06/24 06:12:13;;;;;;;;;14.50;12.75;;;;;16.52;58.39;100934.34;5076676;28;45514;-76
2021/06/24 06:14:38;;;;;;;;;17.00;17.00;;;;;16.56;58.56;100935.91;5077116;28;45370;-74
2021/06/24 06:17:03;;;;;;;;;17.00;16.50;;;;;16.62;58.26;100948.81;5067665;27;52354;-74
2021/06/24 06:19:29;;;;;;;;;12.25;10.75;;;;;16.65;58.24;100947.84;5056133;28;48332;-74
2021/06/24 06:21:54;;;;;;;;;16.50;12.75;;;;;16.68;58.48;100942.44;5075238;28;45440;-75
2021/06/24 06:24:20;;;;;;;;;14.00;13.50;;;;;16.77;58.11;100947.34;5075599;27;51669;-75
2021/06/24 06:26:46;;;;;;;;;14.25;13.75;;;;;16.82;57.87;100947.13;5073086;27;45491;-77
2021/06/24 06:29:11;;;;;;;;;12.25;12.25;;;;;16.83;57.96;100954.09;5073288;27;47098;-75
2021/06/24 06:31:38;;;;;;;;;12.00;11.50;;;;;16.84;57.61;100945.28;5070553;27;45737;-74
2021/06/24 06:34:03;;;;;;;;;16.50;12.50;;;;;16.83;57.87;100954.09;5086368;27;45540;-72
2021/06/24 06:36:29;;;;;;;;;14.75;13.00;;;;;16.83;57.74;100952.31;5077297;27;45729;-74
2021/06/24 06:38:55;;;;;;;;;16.75;14.50;;;;;16.86;57.80;100956.59;5057917;28;48214;-78
2021/06/24 06:41:20;;;;;;;;;15.50;14.00;;;;;16.83;57.54;100957.59;5089053;27;45985;-76
2021/06/24 06:43:45;;;;;;;;;12.75;11.00;;;;;16.83;57.46;100959.38;5065599;27;45407;-77
2021/06/24 06:46:11;;;;;;;;;17.00;15.75;;;;;16.84;57.64;100963.72;5058780;28;45560;-75
2021/06/24 06:48:36;;;;;;;;;17.00;12.75;;;;;16.82;57.43;100958.53;5069547;27;60972;-78
2021/06/24 06:51:02;;;;;;;;;13.75;12.25;;;;;16.84;57.83;100969.00;5069771;27;45416;-78
2021/06/24 06:53:28;;;;;;;;;13.25;12.50;;;;;16.80;57.74;100966.50;5057235;28;45562;-77
2021/06/24 06:55:53;;;;;;;;;13.25;13.25;;;;;16.80;57.40;100963.88;5074448;27;45633;-79
2021/06/24 06:58:18;;;;;;;;;14.75;14.75;;;;;16.79;57.54;100962.16;5070960;27;47979;-77
2021/06/24 07:00:44;;;;;;;;;16.50;13.00;;;;;16.78;57.57;100963.09;5073873;27;45574;-78
2021/06/24 07:03:09;;;;;;;;;17.50;15.00;;;;;16.76;57.50;100964.94;5055872;28;45433;-81
2021/06/24 07:05:35;;;;;;;;;17.00;16.00;;;;;16.75;57.33;100965.00;5067161;28;45525;-80
2021/06/24 07:08:00;;;;;;;;;14.25;14.25;;;;;16.73;57.48;100964.22;5068984;27;46902;-76
2021/06/24 07:10:26;;;;;;;;;15.00;13.75;;;;;16.72;57.60;100973.06;5077464;27;45614;-76
2021/06/24 07:12:51;;;;;;;;;12.00;12.00;;;;;16.72;57.54;100962.50;5073358;27;45435;-76
2021/06/24 07:15:18;;;;;;;;;14.50;13.75;;;;;16.75;57.78;100968.50;5074898;27;45614;-81
2021/06/24 07:17:44;;;;;;;;;16.25;15.25;;;;;16.77;57.85;100971.94;5089432;27;46823;-75
2021/06/24 07:20:10;;;;;;;;;16.50;16.25;;;;;16.80;57.47;100968.28;5078505;27;45715;-74
2021/06/24 07:22:36;;;;;;;;;15.00;15.00;;;;;16.83;57.42;100964.66;5075806;27;45487;-74
2021/06/24 07:25:03;;;;;;;;;17.00;14.50;;;;;16.85;57.47;100960.16;5067092;28;45491;-82
2021/06/24 07:27:28;;;;;;;;;19.75;16.25;;;;;16.90;57.38;100963.44;5077439;27;45568;-74
2021/06/24 07:29:53;;;;;;;;;14.75;13.25;;;;;16.94;57.57;100959.78;5076586;27;45515;-78
2021/06/24 07:32:19;;;;;;;;;18.75;15.75;;;;;16.96;57.28;100964.06;5074264;27;45681;-77
2021/06/24 07:34:44;;;;;;;;;14.50;13.75;;;;;16.97;57.34;100971.03;5087636;27;46770;-76
2021/06/24 07:37:10;;;;;;;;;19.00;18.00;;;;;16.97;57.22;100962.28;5085913;27;46476;-72
2021/06/24 07:39:35;;;;;;;;;18.00;16.50;;;;;16.99;57.44;100963.06;5070770;28;45826;-72
2021/06/24 07:42:01;;;;;;;;;16.75;16.00;;;;;17.03;57.36;100967.25;5073207;27;45607;-76
2021/06/24 07:44:26;;;;;;;;;19.25;14.25;;;;;17.07;57.19;100969.69;5047271;27;45512;-78
2021/06/24 07:46:51;;;;;;;;;18.25;15.75;;;;;17.13;57.22;100965.91;5074610;28;45072;-78
2021/06/24 07:49:17;;;;;;;;;18.00;15.50;;;;;17.11;57.10;100965.13;5092865;27;54724;-77
2021/06/24 07:51:42;;;;;;;;;18.00;16.50;;;;;17.13;57.30;100965.91;5058978;27;50900;-80
2021/06/24 07:54:08;;;;;;;;;18.00;16.25;;;;;17.17;56.99;100970.16;5056481;27;45470;-73
2021/06/24 07:56:33;;;;;;;;;22.50;14.75;;;;;17.21;57.04;100970.84;5077234;28;45398;-77
2021/06/24 07:58:59;;;;;;;;;19.00;16.75;;;;;17.22;56.77;100973.41;5074096;27;45423;-74
2021/06/24 08:01:24;;;;;;;;;17.25;13.00;;;;;17.23;56.48;100974.28;5064605;27;45613;-71
2021/06/24 08:03:51;;;;;;;;;19.25;17.75;;;;;17.23;57.15;100975.13;5080626;27;45696;-79
2021/06/24 08:06:20;;;;;;;;;15.25;15.25;;;;;17.28;56.84;100973.13;5075081;27;46307;-73
2021/06/24 08:08:45;;;;;;;;;16.00;14.50;;;;;17.29;57.03;100966.91;5072667;27;45848;-79
2021/06/24 08:11:11;;;;;;;;;18.50;16.25;;;;;17.32;56.86;100973.84;5071228;27;45711;-77
2021/06/24 08:13:36;;;;;;;;;18.50;16.50;;;;;17.33;56.75;100967.63;5075467;27;45615;-78
2021/06/24 08:16:02;;;;;;;;;19.75;17.75;;;;;17.32;56.57;100972.06;5057355;28;46873;-79
2021/06/24 08:18:29;;;;;;;;;17.75;14.00;;;;;17.35;56.57;100971.06;5071360;27;45480;-76
2021/06/24 08:20:54;;;;;;;;;14.00;13.75;;;;;17.36;56.79;100968.38;5072867;27;45425;-75
2021/06/24 08:23:20;;;;;;;;;17.75;17.25;;;;;17.37;56.68;100970.09;5055353;28;45499;-79
2021/06/24 08:25:46;;;;;;;;;16.00;14.75;;;;;17.41;56.73;100968.16;5073532;27;52531;-77
2021/06/24 08:28:11;;;;;;;;;24.25;18.25;;;;;17.46;56.59;100971.41;5075673;27;45457;-83
2021/06/24 08:30:43;;;;;;;;;15.00;12.75;;;;;17.48;56.50;100977.47;5077084;27;45459;-76
2021/06/24 08:33:09;;;;;;;;;19.50;18.25;;;;;17.52;56.59;100984.31;5072757;27;45446;-80
2021/06/24 08:35:34;;;;;;;;;18.25;15.00;;;;;17.59;56.36;100979.63;5071931;27;46298;-74
2021/06/24 08:38:00;;;;;;;;;16.75;14.25;;;;;17.62;56.20;100980.34;5072880;27;45839;-77
2021/06/24 08:40:25;;;;;;;;;13.75;10.75;;;;;17.62;55.98;100980.34;5072434;28;45505;-78
2021/06/24 08:42:51;;;;;;;;;16.00;16.00;;;;;17.59;56.01;100983.13;5070841;27;45694;-76
2021/06/24 08:45:16;;;;;;;;;19.25;17.25;;;;;17.61;55.86;100985.69;5058630;27;46255;-78
2021/06/24 08:47:44;;;;;;;;;18.25;16.25;;;;;17.60;55.88;100982.19;5071977;27;45536;-75
2021/06/24 08:50:11;;;;;;;;;17.00;14.75;;;;;17.61;56.04;100981.28;5077586;27;45501;-78
2021/06/24 08:52:37;;;;;;;;;17.50;15.00;;;;;17.65;56.32;100979.34;5077663;27;45541;-78
2021/06/24 08:55:03;;;;;;;;;14.50;13.75;;;;;17.69;56.14;100980.94;5058989;27;47288;-75
2021/06/24 08:57:29;;;;;;;;;16.50;13.00;;;;;17.70;56.07;100983.50;5075444;27;45455;-76
2021/06/24 08:59:57;;;;;;;;;21.50;15.50;;;;;17.76;56.22;100982.34;5054413;28;45495;-75
2021/06/24 09:02:36;;;;;;;;;18.25;13.50;;;;;17.80;56.10;100978.66;5058326;28;45634;-74
2021/06/24 09:05:02;;;;;;;;;19.50;16.00;;;;;17.81;55.83;100982.13;5074589;27;46827;-74
2021/06/24 09:07:28;;;;;;;;;18.00;17.25;;;;;17.86;55.94;100988.91;5077131;27;45489;-76
2021/06/24 09:09:54;;;;;;;;;18.25;14.25;;;;;17.91;55.87;100996.59;5076879;27;45448;-75
2021/06/24 09:12:20;;;;;;;;;20.00;18.25;;;;;17.91;55.71;100989.53;5058652;28;45634;-75
2021/06/24 09:14:47;;;;;;;;;18.00;16.75;;;;;17.93;55.67;100987.66;5074327;28;46154;-72
2021/06/24 09:17:31;;;;;;;;;16.50;12.50;;;;;17.97;55.69;100997.16;5071828;27;46432;-77
2021/06/24 09:19:58;;;;;;;;;15.00;13.50;;;;;18.04;55.65;100994.22;5075712;27;45461;-73
2021/06/24 09:22:23;;;;;;;;;20.00;16.00;;;;;18.12;55.62;100997.34;5055415;28;45588;-75
2021/06/24 09:24:49;;;;;;;;;14.50;10.75;;;;;18.16;55.48;100994.47;5075589;27;49901;-73
2021/06/24 09:27:18;;;;;;;;;17.25;15.50;;;;;18.20;55.33;101000.44;5069054;27;45785;-74
2021/06/24 09:30:01;;;;;;;;;18.25;16.25;;;;;18.24;55.30;101000.25;5075783;28;46382;-75
2021/06/24 09:32:29;;;;;;;;;15.50;15.50;;;;;18.27;54.75;100997.44;5072535;27;45564;-75
2021/06/24 09:34:55;;;;;;;;;15.75;14.00;;;;;18.31;54.98;100998.16;5073989;27;47139;-75
2021/06/24 09:37:20;;;;;;;;;13.50;13.25;;;;;18.34;54.89;101003.28;5074188;27;45405;-75
2021/06/24 09:39:47;;;;;;;;;14.75;12.75;;;;;18.38;54.63;101002.19;5068924;28;54436;-76
2021/06/24 09:42:13;;;;;;;;;13.25;12.75;;;;;18.43;54.65;100999.28;5070922;27;45546;-78
2021/06/24 09:44:40;;;;;;;;;8.75;8.00;;;;;18.50;54.84;101004.22;5074703;27;46439;-76
2021/06/24 09:47:29;;;;;;;;;16.00;14.50;;;;;18.54;54.25;101002.28;5072956;27;45835;-74
2021/06/24 09:50:07;;;;;;;;;13.00;12.25;;;;;18.59;54.38;101010.81;5075511;27;45830;-78
2021/06/24 09:52:33;;;;;;;;;16.25;11.75;;;;;18.62;54.35;101002.72;5075742;28;45458;-75
2021/06/24 09:55:01;;;;;;;;;16.00;16.00;;;;;18.63;54.03;101007.09;5075727;27;45560;-76
2021/06/24 09:57:26;;;;;;;;;12.50;11.75;;;;;18.62;53.92;101008.00;5075579;27;45564;-74
2021/06/24 09:59:54;;;;;;;;;14.75;12.75;;;;;18.60;54.11;101005.44;5057944;27;45885;-76
2021/06/24 10:02:19;;;;;;;;;12.50;11.50;;;;;18.63;54.19;101005.31;5074828;27;45501;-73
2021/06/24 10:04:45;;;;;;;;;14.00;13.75;;;;;18.69;53.95;101011.25;5075590;27;46324;-73
2021/06/24 10:07:13;;;;;;;;;16.00;13.25;;;;;18.73;53.85;101011.00;5073740;28;45461;-72
2021/06/24 10:09:40;;;;;;;;;13.75;12.00;;;;;18.74;53.49;101011.88;5056816;28;45615;-71
2021/06/24 10:12:07;;;;;;;;;11.75;10.50;;;;;18.75;53.70;101021.50;5072477;27;45839;-74
2021/06/24 10:14:33;;;;;;;;;12.75;12.75;;;;;18.77;53.76;101012.56;5056949;28;46527;-73
2021/06/24 10:17:00;;;;;;;;;13.75;12.00;;;;;18.80;53.77;101014.19;5073291;28;45728;-73
2021/06/24 10:19:30;;;;;;;;;13.25;12.75;;;;;18.83;53.43;101016.66;5075677;27;45571;-73
2021/06/24 10:22:02;;;;;;;;;18.50;15.25;;;;;18.85;53.64;101020.09;5074634;27;45479;-74
2021/06/24 10:24:33;;;;;;;;;15.50;15.25;;;;;18.91;53.31;101020.63;5076257;27;46583;-74
2021/06/24 10:27:00;;;;;;;;;14.50;11.75;;;;;18.88;53.08;101031.38;5060559;28;45446;-74
2021/06/24 10:29:37;;;;;;;;;14.00;12.50;;;;;18.86;53.19;101019.16;5058044;28;45406;-75
2021/06/24 10:32:03;;;;;;;;;17.50;15.00;;;;;18.86;53.25;101019.16;5061558;27;45438;-73
2021/06/24 10:34:44;;;;;;;;;11.75;10.25;;;;;18.93;52.70;101012.63;5056863;28;45979;-70
2021/06/24 10:37:14;;;;;;;;;14.50;12.25;;;;;18.99;52.84;101017.56;5058810;27;46540;-71
2021/06/24 10:39:40;;;;;;;;;10.50;10.50;;;;;19.10;52.72;101015.25;5056320;27;45667;-71
2021/06/24 10:42:09;;;;;;;;;12.25;11.25;;;;;19.26;52.27;101017.03;5074611;27;45587;-70
2021/06/24 10:44:48;;;;;;;;;12.00;11.50;;;;;19.45;51.75;101018.63;5077063;27;46345;-72
2021/06/24 10:47:14;;;;;;;;;13.00;13.00;;;;;19.56;51.37;101020.72;5067863;28;45474;-75
2021/06/24 10:49:39;;;;;;;;;16.25;12.75;;;;;19.51;51.02;101015.63;5070248;28;45590;-70
2021/06/24 10:52:27;;;;;;;;;11.25;10.75;;;;;19.49;51.43;101019.28;5055020;28;45534;-74
2021/06/24 10:54:59;;;;;;;;;10.50;10.50;;;;;19.68;51.28;101011.22;5079248;27;46784;-72
2021/06/24 10:57:37;;;;;;;;;13.25;13.25;;;;;19.95;51.18;101009.66;5072257;27;45639;-72
2021/06/24 11:00:40;;;;;;;;;16.75;14.50;;;;;20.15;50.46;101016.47;5056100;28;45525;-76
2021/06/24 11:03:07;;;;;;;;;14.75;13.75;;;;;20.35;49.95;101004.72;5074881;27;45773;-74
2021/06/24 11:05:37;;;;;;;;;13.75;12.50;;;;;20.53;49.15;101005.47;5073285;27;46267;-76
2021/06/24 11:08:12;;;;;;;;;13.00;13.00;;;;;20.72;48.61;101004.28;5075054;27;45564;-75
2021/06/24 11:11:04;;;;;;;;;15.75;15.75;;;;;20.95;48.37;100986.09;5074449;27;45489;-72